sensor_id;sensor_type;location;lat;lon;timestamp;temperature;humidity
16643;DHT22;8435;52.184;5.406;2022-08-20T00:00:45;23.30;99.90
16643;DHT22;8435;52.184;5.406;2022-08-20T00:03:15;23.30;99.90
16643;DHT22;8435;52.184;5.406;2022-08-20T00:05:45;23.20;99.90
16643;DHT22;8435;52.184;5.406;2022-08-20T00:08:12;23.20;99.90
16643;DHT22;8435;52.184;5.406;2022-08-20T00:10:44;23.30;99.90
16643;DHT22;8435;52.184;5.406;2022-08-20T00:13:15;23.30;99.90
16643;DHT22;8435;52.184;5.406;2022-08-20T00:15:44;23.30;99.90
16643;DHT22;8435;52.184;5.406;2022-08-20T00:18:13;23.30;99.90
16643;DHT22;8435;52.184;5.406;2022-08-20T00:20:42;23.30;99.90
16643;DHT22;8435;52.184;5.406;2022-08-20T00:23:09;23.30;99.90
16643;DHT22;8435;52.184;5.406;2022-08-20T00:25:36;23.30;99.90
16643;DHT22;8435;52.184;5.406;2022-08-20T00:28:04;23.30;99.90
16643;DHT22;8435;52.184;5.406;2022-08-20T00:30:33;23.30;99.90
16643;DHT22;8435;52.184;5.406;2022-08-20T00:33:13;23.30;99.90
16643;DHT22;8435;52.184;5.406;2022-08-20T00:35:43;23.20;99.90
16643;DHT22;8435;52.184;5.406;2022-08-20T00:38:10;23.30;99.90
16643;DHT22;8435;52.184;5.406;2022-08-20T00:40:40;23.30;99.90
16643;DHT22;8435;52.184;5.406;2022-08-20T00:43:25;23.30;99.90
16643;DHT22;8435;52.184;5.406;2022-08-20T00:45:52;23.30;99.90
16643;DHT22;8435;52.184;5.406;2022-08-20T00:48:24;23.30;99.90
16643;DHT22;8435;52.184;5.406;2022-08-20T00:51:02;23.30;99.90
16643;DHT22;8435;52.184;5.406;2022-08-20T00:53:30;23.30;99.90
16643;DHT22;8435;52.184;5.406;2022-08-20T00:55:58;23.30;99.90
16643;DHT22;8435;52.184;5.406;2022-08-20T00:58:25;23.20;99.90
16643;DHT22;8435;52.184;5.406;2022-08-20T01:00:53;23.20;99.90
16643;DHT22;8435;52.184;5.406;2022-08-20T01:03:20;23.30;99.90
16643;DHT22;8435;52.184;5.406;2022-08-20T01:05:50;23.20;99.90
16643;DHT22;8435;52.184;5.406;2022-08-20T01:08:20;23.30;99.90
16643;DHT22;8435;52.184;5.406;2022-08-20T01:10:53;23.20;99.90
16643;DHT22;8435;52.184;5.406;2022-08-20T01:13:31;23.20;99.90
16643;DHT22;8435;52.184;5.406;2022-08-20T01:16:01;23.20;99.90
16643;DHT22;8435;52.184;5.406;2022-08-20T01:18:29;23.20;99.90
16643;DHT22;8435;52.184;5.406;2022-08-20T01:21:00;23.20;99.90
16643;DHT22;8435;52.184;5.406;2022-08-20T01:23:35;23.10;99.90
16643;DHT22;8435;52.184;5.406;2022-08-20T01:26:09;23.10;99.90
16643;DHT22;8435;52.184;5.406;2022-08-20T01:28:40;23.00;99.90
16643;DHT22;8435;52.184;5.406;2022-08-20T01:31:10;22.90;99.90
16643;DHT22;8435;52.184;5.406;2022-08-20T01:33:37;22.90;99.90
16643;DHT22;8435;52.184;5.406;2022-08-20T01:36:05;22.90;99.90
16643;DHT22;8435;52.184;5.406;2022-08-20T01:38:33;22.80;99.90
16643;DHT22;8435;52.184;5.406;2022-08-20T01:41:17;22.70;99.90
16643;DHT22;8435;52.184;5.406;2022-08-20T01:43:47;22.70;99.90
16643;DHT22;8435;52.184;5.406;2022-08-20T01:46:14;22.70;99.90
16643;DHT22;8435;52.184;5.406;2022-08-20T01:48:43;22.60;99.90
16643;DHT22;8435;52.184;5.406;2022-08-20T01:51:12;22.60;99.90
16643;DHT22;8435;52.184;5.406;2022-08-20T01:53:46;22.50;99.90
16643;DHT22;8435;52.184;5.406;2022-08-20T01:56:16;22.50;99.90
16643;DHT22;8435;52.184;5.406;2022-08-20T01:58:50;22.40;99.90
16643;DHT22;8435;52.184;5.406;2022-08-20T02:01:20;22.40;99.90
16643;DHT22;8435;52.184;5.406;2022-08-20T02:03:48;22.40;99.90
16643;DHT22;8435;52.184;5.406;2022-08-20T02:06:15;22.40;99.90
16643;DHT22;8435;52.184;5.406;2022-08-20T02:08:42;22.30;99.90
16643;DHT22;8435;52.184;5.406;2022-08-20T02:11:09;22.30;99.90
16643;DHT22;8435;52.184;5.406;2022-08-20T02:13:38;22.30;99.90
16643;DHT22;8435;52.184;5.406;2022-08-20T02:16:06;22.20;99.90
16643;DHT22;8435;52.184;5.406;2022-08-20T02:18:33;22.20;99.90
16643;DHT22;8435;52.184;5.406;2022-08-20T02:21:00;22.20;99.90
16643;DHT22;8435;52.184;5.406;2022-08-20T02:23:27;22.20;99.90
16643;DHT22;8435;52.184;5.406;2022-08-20T02:25:54;22.20;99.90
16643;DHT22;8435;52.184;5.406;2022-08-20T02:28:21;22.20;99.90
16643;DHT22;8435;52.184;5.406;2022-08-20T02:30:51;22.20;99.90
16643;DHT22;8435;52.184;5.406;2022-08-20T02:33:20;22.20;99.90
16643;DHT22;8435;52.184;5.406;2022-08-20T02:35:48;22.10;99.90
16643;DHT22;8435;52.184;5.406;2022-08-20T02:38:15;22.10;99.90
16643;DHT22;8435;52.184;5.406;2022-08-20T02:40:43;22.10;99.90
16643;DHT22;8435;52.184;5.406;2022-08-20T02:43:10;22.10;99.90
16643;DHT22;8435;52.184;5.406;2022-08-20T02:45:39;22.10;99.90
16643;DHT22;8435;52.184;5.406;2022-08-20T02:48:11;22.10;99.90
16643;DHT22;8435;52.184;5.406;2022-08-20T02:50:46;22.10;99.90
16643;DHT22;8435;52.184;5.406;2022-08-20T02:53:14;22.10;99.90
16643;DHT22;8435;52.184;5.406;2022-08-20T02:55:40;22.00;99.90
16643;DHT22;8435;52.184;5.406;2022-08-20T02:58:07;22.00;99.90
16643;DHT22;8435;52.184;5.406;2022-08-20T03:00:34;22.00;99.90
16643;DHT22;8435;52.184;5.406;2022-08-20T03:03:01;22.00;99.90
16643;DHT22;8435;52.184;5.406;2022-08-20T03:05:31;22.00;99.90
16643;DHT22;8435;52.184;5.406;2022-08-20T03:07:58;22.00;99.90
16643;DHT22;8435;52.184;5.406;2022-08-20T03:10:27;21.90;99.90
16643;DHT22;8435;52.184;5.406;2022-08-20T03:12:54;21.90;99.90
16643;DHT22;8435;52.184;5.406;2022-08-20T03:15:20;21.90;99.90
16643;DHT22;8435;52.184;5.406;2022-08-20T03:17:48;21.90;99.90
16643;DHT22;8435;52.184;5.406;2022-08-20T03:20:15;21.80;99.90
16643;DHT22;8435;52.184;5.406;2022-08-20T03:22:43;21.80;99.90
16643;DHT22;8435;52.184;5.406;2022-08-20T03:25:10;21.80;99.90
16643;DHT22;8435;52.184;5.406;2022-08-20T03:27:37;21.70;99.90
16643;DHT22;8435;52.184;5.406;2022-08-20T03:30:07;21.70;99.90
16643;DHT22;8435;52.184;5.406;2022-08-20T03:32:34;21.70;99.90
16643;DHT22;8435;52.184;5.406;2022-08-20T03:35:01;21.70;99.90
16643;DHT22;8435;52.184;5.406;2022-08-20T03:37:29;21.70;99.90
16643;DHT22;8435;52.184;5.406;2022-08-20T03:39:58;21.60;99.90
16643;DHT22;8435;52.184;5.406;2022-08-20T03:42:25;21.60;99.90
16643;DHT22;8435;52.184;5.406;2022-08-20T03:44:52;21.60;99.90
16643;DHT22;8435;52.184;5.406;2022-08-20T03:47:19;21.60;99.90
16643;DHT22;8435;52.184;5.406;2022-08-20T03:49:46;21.50;99.90
16643;DHT22;8435;52.184;5.406;2022-08-20T03:52:13;21.50;99.90
16643;DHT22;8435;52.184;5.406;2022-08-20T03:54:42;21.50;99.90
16643;DHT22;8435;52.184;5.406;2022-08-20T03:57:13;21.50;99.90
16643;DHT22;8435;52.184;5.406;2022-08-20T03:59:42;21.50;99.90
16643;DHT22;8435;52.184;5.406;2022-08-20T04:02:10;21.50;99.90
16643;DHT22;8435;52.184;5.406;2022-08-20T04:04:37;21.50;99.90
16643;DHT22;8435;52.184;5.406;2022-08-20T04:07:09;21.40;99.90
16643;DHT22;8435;52.184;5.406;2022-08-20T04:09:36;21.40;99.90
16643;DHT22;8435;52.184;5.406;2022-08-20T04:12:04;21.40;99.90
16643;DHT22;8435;52.184;5.406;2022-08-20T04:14:33;21.40;99.90
16643;DHT22;8435;52.184;5.406;2022-08-20T04:17:04;21.30;99.90
16643;DHT22;8435;52.184;5.406;2022-08-20T04:19:31;21.30;99.90
16643;DHT22;8435;52.184;5.406;2022-08-20T04:21:58;21.30;99.90
16643;DHT22;8435;52.184;5.406;2022-08-20T04:24:24;21.30;99.90
16643;DHT22;8435;52.184;5.406;2022-08-20T04:26:51;21.20;99.90
16643;DHT22;8435;52.184;5.406;2022-08-20T04:29:19;21.30;99.90
16643;DHT22;8435;52.184;5.406;2022-08-20T04:31:47;21.20;99.90
16643;DHT22;8435;52.184;5.406;2022-08-20T04:34:14;21.20;99.90
16643;DHT22;8435;52.184;5.406;2022-08-20T04:36:41;21.10;99.90
16643;DHT22;8435;52.184;5.406;2022-08-20T04:39:08;21.10;99.90
16643;DHT22;8435;52.184;5.406;2022-08-20T04:41:34;21.10;99.90
16643;DHT22;8435;52.184;5.406;2022-08-20T04:44:01;21.10;99.90
16643;DHT22;8435;52.184;5.406;2022-08-20T04:46:29;21.10;99.90
16643;DHT22;8435;52.184;5.406;2022-08-20T04:48:58;21.10;99.90
16643;DHT22;8435;52.184;5.406;2022-08-20T04:51:27;21.10;99.90
16643;DHT22;8435;52.184;5.406;2022-08-20T04:53:55;21.10;99.90
16643;DHT22;8435;52.184;5.406;2022-08-20T04:56:26;21.10;99.90
16643;DHT22;8435;52.184;5.406;2022-08-20T04:58:54;21.10;99.90
16643;DHT22;8435;52.184;5.406;2022-08-20T05:01:22;21.10;99.90
16643;DHT22;8435;52.184;5.406;2022-08-20T05:03:54;21.10;99.90
16643;DHT22;8435;52.184;5.406;2022-08-20T05:06:24;21.10;99.90
16643;DHT22;8435;52.184;5.406;2022-08-20T05:08:53;21.10;99.90
16643;DHT22;8435;52.184;5.406;2022-08-20T05:11:21;21.10;99.90
16643;DHT22;8435;52.184;5.406;2022-08-20T05:13:48;21.10;99.90
16643;DHT22;8435;52.184;5.406;2022-08-20T05:16:18;21.10;99.90
16643;DHT22;8435;52.184;5.406;2022-08-20T05:18:45;21.10;99.90
16643;DHT22;8435;52.184;5.406;2022-08-20T05:21:12;21.10;99.90
16643;DHT22;8435;52.184;5.406;2022-08-20T05:23:40;21.10;99.90
16643;DHT22;8435;52.184;5.406;2022-08-20T05:26:08;21.00;99.90
16643;DHT22;8435;52.184;5.406;2022-08-20T05:28:37;21.00;99.90
16643;DHT22;8435;52.184;5.406;2022-08-20T05:31:05;21.00;99.90
16643;DHT22;8435;52.184;5.406;2022-08-20T05:33:37;21.00;99.90
16643;DHT22;8435;52.184;5.406;2022-08-20T05:36:05;21.00;99.90
16643;DHT22;8435;52.184;5.406;2022-08-20T05:38:33;21.00;99.90
16643;DHT22;8435;52.184;5.406;2022-08-20T05:41:04;20.90;99.90
16643;DHT22;8435;52.184;5.406;2022-08-20T05:43:31;20.90;99.90
16643;DHT22;8435;52.184;5.406;2022-08-20T05:45:59;20.90;99.90
16643;DHT22;8435;52.184;5.406;2022-08-20T05:48:26;20.90;99.90
16643;DHT22;8435;52.184;5.406;2022-08-20T05:50:53;20.90;99.90
16643;DHT22;8435;52.184;5.406;2022-08-20T05:53:22;20.90;99.90
16643;DHT22;8435;52.184;5.406;2022-08-20T05:55:49;20.90;99.90
16643;DHT22;8435;52.184;5.406;2022-08-20T05:58:19;20.90;99.90
16643;DHT22;8435;52.184;5.406;2022-08-20T06:00:47;20.90;99.90
16643;DHT22;8435;52.184;5.406;2022-08-20T06:03:15;20.90;99.90
16643;DHT22;8435;52.184;5.406;2022-08-20T06:05:59;20.90;99.90
16643;DHT22;8435;52.184;5.406;2022-08-20T06:08:26;20.90;99.90
16643;DHT22;8435;52.184;5.406;2022-08-20T06:10:53;21.00;99.90
16643;DHT22;8435;52.184;5.406;2022-08-20T06:13:22;21.00;99.90
16643;DHT22;8435;52.184;5.406;2022-08-20T06:15:49;21.10;99.90
16643;DHT22;8435;52.184;5.406;2022-08-20T06:18:16;21.30;99.90
16643;DHT22;8435;52.184;5.406;2022-08-20T06:20:43;21.50;99.90
16643;DHT22;8435;52.184;5.406;2022-08-20T06:23:10;21.70;99.90
16643;DHT22;8435;52.184;5.406;2022-08-20T06:25:37;21.90;99.90
16643;DHT22;8435;52.184;5.406;2022-08-20T06:28:04;22.10;99.90
16643;DHT22;8435;52.184;5.406;2022-08-20T06:30:33;22.30;99.90
16643;DHT22;8435;52.184;5.406;2022-08-20T06:33:00;22.30;99.90
16643;DHT22;8435;52.184;5.406;2022-08-20T06:35:26;22.40;99.90
16643;DHT22;8435;52.184;5.406;2022-08-20T06:37:53;22.40;99.90
16643;DHT22;8435;52.184;5.406;2022-08-20T06:40:23;22.40;99.90
16643;DHT22;8435;52.184;5.406;2022-08-20T06:42:51;22.50;99.90
16643;DHT22;8435;52.184;5.406;2022-08-20T06:45:20;22.50;99.90
16643;DHT22;8435;52.184;5.406;2022-08-20T06:47:51;22.50;99.90
16643;DHT22;8435;52.184;5.406;2022-08-20T06:50:20;22.50;99.90
16643;DHT22;8435;52.184;5.406;2022-08-20T06:52:47;22.50;99.90
16643;DHT22;8435;52.184;5.406;2022-08-20T06:55:15;22.50;99.90
16643;DHT22;8435;52.184;5.406;2022-08-20T06:57:42;22.50;99.90
16643;DHT22;8435;52.184;5.406;2022-08-20T07:00:14;22.50;99.90
16643;DHT22;8435;52.184;5.406;2022-08-20T07:02:41;22.50;99.90
16643;DHT22;8435;52.184;5.406;2022-08-20T07:05:10;22.50;99.90
16643;DHT22;8435;52.184;5.406;2022-08-20T07:07:37;22.50;99.90
16643;DHT22;8435;52.184;5.406;2022-08-20T07:10:06;22.60;99.90
16643;DHT22;8435;52.184;5.406;2022-08-20T07:12:33;22.60;99.90
16643;DHT22;8435;52.184;5.406;2022-08-20T07:15:01;22.60;99.90
16643;DHT22;8435;52.184;5.406;2022-08-20T07:17:27;22.70;99.90
16643;DHT22;8435;52.184;5.406;2022-08-20T07:19:54;22.70;99.90
16643;DHT22;8435;52.184;5.406;2022-08-20T07:22:23;22.90;99.90
16643;DHT22;8435;52.184;5.406;2022-08-20T07:24:50;23.30;99.90
16643;DHT22;8435;52.184;5.406;2022-08-20T07:27:19;23.60;99.90
16643;DHT22;8435;52.184;5.406;2022-08-20T07:29:46;24.00;99.90
16643;DHT22;8435;52.184;5.406;2022-08-20T07:32:30;24.50;99.90
16643;DHT22;8435;52.184;5.406;2022-08-20T07:35:03;25.00;99.90
16643;DHT22;8435;52.184;5.406;2022-08-20T07:37:37;25.50;99.90
16643;DHT22;8435;52.184;5.406;2022-08-20T07:40:07;25.90;99.60
16643;DHT22;8435;52.184;5.406;2022-08-20T07:42:34;26.30;99.00
16643;DHT22;8435;52.184;5.406;2022-08-20T07:45:01;26.70;98.60
16643;DHT22;8435;52.184;5.406;2022-08-20T07:47:27;27.10;99.00
16643;DHT22;8435;52.184;5.406;2022-08-20T07:49:54;27.50;97.90
16643;DHT22;8435;52.184;5.406;2022-08-20T07:52:21;27.90;97.40
16643;DHT22;8435;52.184;5.406;2022-08-20T07:54:49;28.10;96.60
16643;DHT22;8435;52.184;5.406;2022-08-20T07:57:15;28.40;96.20
16643;DHT22;8435;52.184;5.406;2022-08-20T07:59:43;28.70;95.90
16643;DHT22;8435;52.184;5.406;2022-08-20T08:02:11;28.90;95.30
16643;DHT22;8435;52.184;5.406;2022-08-20T08:04:38;29.10;94.30
16643;DHT22;8435;52.184;5.406;2022-08-20T08:07:05;29.30;93.90
16643;DHT22;8435;52.184;5.406;2022-08-20T08:09:33;29.40;93.20
16643;DHT22;8435;52.184;5.406;2022-08-20T08:12:02;29.60;93.50
16643;DHT22;8435;52.184;5.406;2022-08-20T08:14:33;29.70;93.10
16643;DHT22;8435;52.184;5.406;2022-08-20T08:17:01;29.80;91.70
16643;DHT22;8435;52.184;5.406;2022-08-20T08:19:31;30.00;92.80
16643;DHT22;8435;52.184;5.406;2022-08-20T08:22:03;30.10;92.60
16643;DHT22;8435;52.184;5.406;2022-08-20T08:24:30;30.20;92.20
16643;DHT22;8435;52.184;5.406;2022-08-20T08:26:57;30.30;91.60
16643;DHT22;8435;52.184;5.406;2022-08-20T08:29:25;30.40;91.40
16643;DHT22;8435;52.184;5.406;2022-08-20T08:31:53;30.50;90.90
16643;DHT22;8435;52.184;5.406;2022-08-20T08:34:19;30.60;90.20
16643;DHT22;8435;52.184;5.406;2022-08-20T08:36:46;30.70;90.00
16643;DHT22;8435;52.184;5.406;2022-08-20T08:39:15;30.80;90.00
16643;DHT22;8435;52.184;5.406;2022-08-20T08:41:44;30.80;88.00
16643;DHT22;8435;52.184;5.406;2022-08-20T08:44:16;30.90;87.20
16643;DHT22;8435;52.184;5.406;2022-08-20T08:46:51;30.90;84.90
16643;DHT22;8435;52.184;5.406;2022-08-20T08:49:23;30.90;85.50
16643;DHT22;8435;52.184;5.406;2022-08-20T08:51:54;30.90;86.20
16643;DHT22;8435;52.184;5.406;2022-08-20T08:54:26;30.90;84.30
16643;DHT22;8435;52.184;5.406;2022-08-20T08:56:55;30.90;84.70
16643;DHT22;8435;52.184;5.406;2022-08-20T08:59:27;30.90;82.00
16643;DHT22;8435;52.184;5.406;2022-08-20T09:01:58;30.90;83.20
16643;DHT22;8435;52.184;5.406;2022-08-20T09:04:29;30.80;83.60
16643;DHT22;8435;52.184;5.406;2022-08-20T09:06:58;30.80;82.30
16643;DHT22;8435;52.184;5.406;2022-08-20T09:09:29;30.80;81.00
16643;DHT22;8435;52.184;5.406;2022-08-20T09:12:03;30.80;81.00
16643;DHT22;8435;52.184;5.406;2022-08-20T09:14:31;30.70;80.30
16643;DHT22;8435;52.184;5.406;2022-08-20T09:16:59;30.80;79.00
16643;DHT22;8435;52.184;5.406;2022-08-20T09:19:26;30.70;76.70
16643;DHT22;8435;52.184;5.406;2022-08-20T09:21:52;30.70;78.00
16643;DHT22;8435;52.184;5.406;2022-08-20T09:24:22;30.50;74.10
16643;DHT22;8435;52.184;5.406;2022-08-20T09:26:49;30.40;73.60
16643;DHT22;8435;52.184;5.406;2022-08-20T09:29:16;30.40;75.00
16643;DHT22;8435;52.184;5.406;2022-08-20T09:31:43;30.30;78.10
16643;DHT22;8435;52.184;5.406;2022-08-20T09:34:12;30.30;78.80
16643;DHT22;8435;52.184;5.406;2022-08-20T09:36:39;30.20;74.90
16643;DHT22;8435;52.184;5.406;2022-08-20T09:39:06;30.20;76.50
16643;DHT22;8435;52.184;5.406;2022-08-20T09:41:34;30.10;77.20
16643;DHT22;8435;52.184;5.406;2022-08-20T09:44:01;30.20;77.00
16643;DHT22;8435;52.184;5.406;2022-08-20T09:46:27;30.10;76.70
16643;DHT22;8435;52.184;5.406;2022-08-20T09:48:54;30.10;78.20
16643;DHT22;8435;52.184;5.406;2022-08-20T09:51:22;30.10;75.80
16643;DHT22;8435;52.184;5.406;2022-08-20T09:53:49;30.10;71.40
16643;DHT22;8435;52.184;5.406;2022-08-20T09:56:16;30.10;70.70
16643;DHT22;8435;52.184;5.406;2022-08-20T09:58:46;30.00;70.50
16643;DHT22;8435;52.184;5.406;2022-08-20T10:01:17;29.90;70.60
16643;DHT22;8435;52.184;5.406;2022-08-20T10:03:45;29.90;70.30
16643;DHT22;8435;52.184;5.406;2022-08-20T10:06:13;29.80;68.20
16643;DHT22;8435;52.184;5.406;2022-08-20T10:08:42;29.60;69.10
16643;DHT22;8435;52.184;5.406;2022-08-20T10:11:09;29.50;68.50
16643;DHT22;8435;52.184;5.406;2022-08-20T10:13:36;29.40;70.20
16643;DHT22;8435;52.184;5.406;2022-08-20T10:16:03;29.20;69.10
16643;DHT22;8435;52.184;5.406;2022-08-20T10:18:33;29.10;69.00
16643;DHT22;8435;52.184;5.406;2022-08-20T10:21:00;29.00;67.60
16643;DHT22;8435;52.184;5.406;2022-08-20T10:23:27;29.00;68.00
16643;DHT22;8435;52.184;5.406;2022-08-20T10:25:55;28.80;68.30
16643;DHT22;8435;52.184;5.406;2022-08-20T10:28:21;28.70;66.60
16643;DHT22;8435;52.184;5.406;2022-08-20T10:30:48;28.60;67.00
16643;DHT22;8435;52.184;5.406;2022-08-20T10:33:15;28.50;67.50
16643;DHT22;8435;52.184;5.406;2022-08-20T10:35:42;28.40;69.60
16643;DHT22;8435;52.184;5.406;2022-08-20T10:38:08;28.20;68.30
16643;DHT22;8435;52.184;5.406;2022-08-20T10:40:35;28.20;68.90
16643;DHT22;8435;52.184;5.406;2022-08-20T10:43:03;28.10;69.40
16643;DHT22;8435;52.184;5.406;2022-08-20T10:45:30;28.10;71.50
16643;DHT22;8435;52.184;5.406;2022-08-20T10:48:00;28.10;69.30
16643;DHT22;8435;52.184;5.406;2022-08-20T10:50:27;28.00;69.70
16643;DHT22;8435;52.184;5.406;2022-08-20T10:52:55;28.00;67.70
16643;DHT22;8435;52.184;5.406;2022-08-20T10:55:22;28.00;67.20
16643;DHT22;8435;52.184;5.406;2022-08-20T10:57:49;27.90;66.20
16643;DHT22;8435;52.184;5.406;2022-08-20T11:00:18;27.80;67.90
16643;DHT22;8435;52.184;5.406;2022-08-20T11:02:44;27.80;67.20
16643;DHT22;8435;52.184;5.406;2022-08-20T11:05:11;27.70;68.80
16643;DHT22;8435;52.184;5.406;2022-08-20T11:07:40;27.70;67.30
16643;DHT22;8435;52.184;5.406;2022-08-20T11:10:08;27.60;68.40
16643;DHT22;8435;52.184;5.406;2022-08-20T11:12:35;27.70;68.90
16643;DHT22;8435;52.184;5.406;2022-08-20T11:15:03;27.70;67.60
16643;DHT22;8435;52.184;5.406;2022-08-20T11:17:33;27.70;68.90
16643;DHT22;8435;52.184;5.406;2022-08-20T11:20:02;27.70;67.50
16643;DHT22;8435;52.184;5.406;2022-08-20T11:22:30;27.70;68.20
16643;DHT22;8435;52.184;5.406;2022-08-20T11:24:57;27.70;69.80
16643;DHT22;8435;52.184;5.406;2022-08-20T11:27:26;27.70;69.20
16643;DHT22;8435;52.184;5.406;2022-08-20T11:29:53;27.80;68.60
16643;DHT22;8435;52.184;5.406;2022-08-20T11:32:21;27.80;68.30
16643;DHT22;8435;52.184;5.406;2022-08-20T11:34:53;27.80;68.00
16643;DHT22;8435;52.184;5.406;2022-08-20T11:37:21;27.80;68.20
16643;DHT22;8435;52.184;5.406;2022-08-20T11:39:49;27.80;69.90
16643;DHT22;8435;52.184;5.406;2022-08-20T11:42:16;27.80;69.00
16643;DHT22;8435;52.184;5.406;2022-08-20T11:44:45;27.80;68.40
16643;DHT22;8435;52.184;5.406;2022-08-20T11:47:22;27.90;68.20
16643;DHT22;8435;52.184;5.406;2022-08-20T11:49:57;27.80;67.80
16643;DHT22;8435;52.184;5.406;2022-08-20T11:52:25;27.90;66.70
16643;DHT22;8435;52.184;5.406;2022-08-20T11:54:51;27.90;67.70
16643;DHT22;8435;52.184;5.406;2022-08-20T11:57:19;27.90;67.50
16643;DHT22;8435;52.184;5.406;2022-08-20T11:59:48;27.80;67.20
16643;DHT22;8435;52.184;5.406;2022-08-20T12:02:15;27.80;66.90
16643;DHT22;8435;52.184;5.406;2022-08-20T12:04:42;27.70;66.60
16643;DHT22;8435;52.184;5.406;2022-08-20T12:07:12;27.70;67.10
16643;DHT22;8435;52.184;5.406;2022-08-20T12:09:42;27.60;66.90
16643;DHT22;8435;52.184;5.406;2022-08-20T12:12:10;27.60;67.30
16643;DHT22;8435;52.184;5.406;2022-08-20T12:14:37;27.60;67.00
16643;DHT22;8435;52.184;5.406;2022-08-20T12:17:07;27.60;67.80
16643;DHT22;8435;52.184;5.406;2022-08-20T12:19:36;27.60;66.60
16643;DHT22;8435;52.184;5.406;2022-08-20T12:22:03;27.60;66.80
16643;DHT22;8435;52.184;5.406;2022-08-20T12:24:31;27.70;67.40
16643;DHT22;8435;52.184;5.406;2022-08-20T12:27:07;27.70;66.80
16643;DHT22;8435;52.184;5.406;2022-08-20T12:29:35;27.80;67.60
16643;DHT22;8435;52.184;5.406;2022-08-20T12:32:03;27.80;67.60
16643;DHT22;8435;52.184;5.406;2022-08-20T12:34:31;27.80;67.80
16643;DHT22;8435;52.184;5.406;2022-08-20T12:37:02;27.90;68.70
16643;DHT22;8435;52.184;5.406;2022-08-20T12:39:31;27.90;67.70
16643;DHT22;8435;52.184;5.406;2022-08-20T12:41:59;27.90;66.10
16643;DHT22;8435;52.184;5.406;2022-08-20T12:44:27;27.90;66.50
16643;DHT22;8435;52.184;5.406;2022-08-20T12:47:07;27.90;66.80
16643;DHT22;8435;52.184;5.406;2022-08-20T12:49:34;28.00;65.70
16643;DHT22;8435;52.184;5.406;2022-08-20T12:52:01;27.90;66.20
16643;DHT22;8435;52.184;5.406;2022-08-20T12:54:28;27.90;66.30
16643;DHT22;8435;52.184;5.406;2022-08-20T12:56:56;27.90;67.10
16643;DHT22;8435;52.184;5.406;2022-08-20T12:59:23;27.90;66.20
16643;DHT22;8435;52.184;5.406;2022-08-20T13:01:51;27.90;66.20
16643;DHT22;8435;52.184;5.406;2022-08-20T13:04:18;27.90;66.90
16643;DHT22;8435;52.184;5.406;2022-08-20T13:06:45;27.90;66.80
16643;DHT22;8435;52.184;5.406;2022-08-20T13:09:12;27.90;67.00
16643;DHT22;8435;52.184;5.406;2022-08-20T13:11:39;27.90;66.40
16643;DHT22;8435;52.184;5.406;2022-08-20T13:14:07;27.90;66.60
16643;DHT22;8435;52.184;5.406;2022-08-20T13:16:34;27.90;65.90
16643;DHT22;8435;52.184;5.406;2022-08-20T13:19:01;27.90;66.80
16643;DHT22;8435;52.184;5.406;2022-08-20T13:21:27;27.90;66.40
16643;DHT22;8435;52.184;5.406;2022-08-20T13:23:54;27.90;67.10
16643;DHT22;8435;52.184;5.406;2022-08-20T13:26:22;27.90;67.10
16643;DHT22;8435;52.184;5.406;2022-08-20T13:28:58;28.00;66.20
16643;DHT22;8435;52.184;5.406;2022-08-20T13:31:26;28.00;66.40
16643;DHT22;8435;52.184;5.406;2022-08-20T13:34:05;28.10;67.20
16643;DHT22;8435;52.184;5.406;2022-08-20T13:36:35;28.10;67.40
16643;DHT22;8435;52.184;5.406;2022-08-20T13:39:04;28.10;67.20
16643;DHT22;8435;52.184;5.406;2022-08-20T13:41:31;28.10;67.00
16643;DHT22;8435;52.184;5.406;2022-08-20T13:43:58;28.10;67.10
16643;DHT22;8435;52.184;5.406;2022-08-20T13:46:26;28.10;66.90
16643;DHT22;8435;52.184;5.406;2022-08-20T13:48:53;28.10;65.90
16643;DHT22;8435;52.184;5.406;2022-08-20T13:51:20;28.10;66.80
16643;DHT22;8435;52.184;5.406;2022-08-20T13:53:47;28.10;66.50
16643;DHT22;8435;52.184;5.406;2022-08-20T13:56:13;28.00;66.20
16643;DHT22;8435;52.184;5.406;2022-08-20T13:58:40;28.00;66.30
16643;DHT22;8435;52.184;5.406;2022-08-20T14:01:07;28.00;66.30
16643;DHT22;8435;52.184;5.406;2022-08-20T14:03:35;27.90;66.60
16643;DHT22;8435;52.184;5.406;2022-08-20T14:06:03;27.90;66.20
16643;DHT22;8435;52.184;5.406;2022-08-20T14:08:30;27.90;66.60
16643;DHT22;8435;52.184;5.406;2022-08-20T14:10:57;27.90;67.00
16643;DHT22;8435;52.184;5.406;2022-08-20T14:13:25;27.90;66.80
16643;DHT22;8435;52.184;5.406;2022-08-20T14:15:53;27.90;66.60
16643;DHT22;8435;52.184;5.406;2022-08-20T14:18:20;27.90;66.40
16643;DHT22;8435;52.184;5.406;2022-08-20T14:20:49;28.00;66.60
16643;DHT22;8435;52.184;5.406;2022-08-20T14:23:16;28.00;66.80
16643;DHT22;8435;52.184;5.406;2022-08-20T14:25:45;28.00;66.60
16643;DHT22;8435;52.184;5.406;2022-08-20T14:28:14;28.00;67.00
16643;DHT22;8435;52.184;5.406;2022-08-20T14:30:42;28.00;66.80
16643;DHT22;8435;52.184;5.406;2022-08-20T14:33:09;28.10;67.00
16643;DHT22;8435;52.184;5.406;2022-08-20T14:35:36;28.10;66.90
16643;DHT22;8435;52.184;5.406;2022-08-20T14:38:04;28.10;66.20
16643;DHT22;8435;52.184;5.406;2022-08-20T14:40:32;28.20;66.10
16643;DHT22;8435;52.184;5.406;2022-08-20T14:42:59;28.10;66.60
16643;DHT22;8435;52.184;5.406;2022-08-20T14:45:26;28.10;67.10
16643;DHT22;8435;52.184;5.406;2022-08-20T14:47:55;28.10;67.00
16643;DHT22;8435;52.184;5.406;2022-08-20T14:50:25;28.00;66.80
16643;DHT22;8435;52.184;5.406;2022-08-20T14:52:53;28.00;67.30
16643;DHT22;8435;52.184;5.406;2022-08-20T14:55:24;27.90;67.20
16643;DHT22;8435;52.184;5.406;2022-08-20T14:57:51;27.90;67.60
16643;DHT22;8435;52.184;5.406;2022-08-20T15:00:20;27.90;68.10
16643;DHT22;8435;52.184;5.406;2022-08-20T15:02:48;27.80;69.10
16643;DHT22;8435;52.184;5.406;2022-08-20T15:05:15;27.80;69.30
16643;DHT22;8435;52.184;5.406;2022-08-20T15:07:43;27.80;69.60
16643;DHT22;8435;52.184;5.406;2022-08-20T15:10:13;27.70;69.90
16643;DHT22;8435;52.184;5.406;2022-08-20T15:12:51;27.70;70.30
16643;DHT22;8435;52.184;5.406;2022-08-20T15:15:18;27.80;70.90
16643;DHT22;8435;52.184;5.406;2022-08-20T15:17:51;27.80;71.00
16643;DHT22;8435;52.184;5.406;2022-08-20T15:20:25;27.80;70.30
16643;DHT22;8435;52.184;5.406;2022-08-20T15:22:52;27.70;70.20
16643;DHT22;8435;52.184;5.406;2022-08-20T15:25:21;27.70;70.50
16643;DHT22;8435;52.184;5.406;2022-08-20T15:27:50;27.70;70.70
16643;DHT22;8435;52.184;5.406;2022-08-20T15:30:21;27.60;70.20
16643;DHT22;8435;52.184;5.406;2022-08-20T15:32:48;27.60;70.30
16643;DHT22;8435;52.184;5.406;2022-08-20T15:35:16;27.50;71.00
16643;DHT22;8435;52.184;5.406;2022-08-20T15:37:45;27.40;71.10
16643;DHT22;8435;52.184;5.406;2022-08-20T15:40:15;27.30;71.50
16643;DHT22;8435;52.184;5.406;2022-08-20T15:42:42;27.30;71.60
16643;DHT22;8435;52.184;5.406;2022-08-20T15:45:12;27.20;71.40
16643;DHT22;8435;52.184;5.406;2022-08-20T15:47:48;27.10;72.00
16643;DHT22;8435;52.184;5.406;2022-08-20T15:50:24;27.10;72.60
16643;DHT22;8435;52.184;5.406;2022-08-20T15:53:00;27.00;72.40